Time;durP1;ratioP1;P1;durP2;ratioP2;P2;SDS_P1;SDS_P2;PMS_P1;PMS_P2;Temp;Humidity;BMP_temperature;BMP_pressure;BME280_temperature;BME280_humidity;BME280_pressure;Samples;Min_cycle;Max_cycle;Signal;HPM_P1;HPM_P2
2021/04/01 00:00:47;;;;;;;;;;;;;;;23.71;37.99;100065.84;4484745;32;34770;-50
2021/04/01 00:03:14;;;;;;;;;;;;;;;23.70;38.06;100061.47;4484432;32;34443;-51
2021/04/01 00:05:42;;;;;;;;;;;;;;;23.68;37.95;100057.06;4484557;32;34337;-54
2021/04/01 00:08:09;;;;;;;;;;;;;;;23.68;37.87;100057.06;4484515;32;35504;-53
2021/04/01 00:10:38;;;;;;;;;;;;;;;23.67;38.00;100058.09;4484999;32;35021;-55
2021/04/01 00:13:05;;;;;;;;;;;;;;;23.67;38.03;100054.56;4482972;32;35021;-54
2021/04/01 00:15:32;;;;;;;;;;;;;;;23.67;38.03;100055.38;4484730;32;33082;-46
2021/04/01 00:18:00;;;;;;;;;;;;;;;23.67;38.04;100055.38;4483248;32;34029;-53
2021/04/01 00:20:27;;;;;;;;;;;;;;;23.66;38.04;100045.56;4484385;32;34102;-51
2021/04/01 00:22:54;;;;;;;;;;;;;;;23.66;38.11;100042.00;4484533;32;34367;-56
2021/04/01 00:25:21;;;;;;;;;;;;;;;23.66;38.08;100042.84;4484651;32;34283;-52
2021/04/01 00:27:48;;;;;;;;;;;;;;;23.65;37.92;100038.44;4484535;32;33869;-56
2021/04/01 00:30:15;;;;;;;;;;;;;;;23.66;38.05;100034.66;4468761;32;34204;-51
2021/04/01 00:32:46;;;;;;;;;;;;;;;23.65;37.98;100033.00;4468626;32;34962;-51
2021/04/01 00:35:13;;;;;;;;;;;;;;;23.66;37.99;100036.56;4468694;32;33423;-52
2021/04/01 00:37:40;;;;;;;;;;;;;;;23.66;38.04;100028.38;4468761;32;34825;-50
2021/04/01 00:40:07;;;;;;;;;;;;;;;23.65;38.13;100024.81;4468646;32;34028;-53
2021/04/01 00:42:34;;;;;;;;;;;;;;;23.65;38.13;100022.09;4468571;32;33918;-55
2021/04/01 00:45:02;;;;;;;;;;;;;;;23.65;38.18;100024.00;4474435;32;34122;-48
2021/04/01 00:47:32;;;;;;;;;;;;;;;23.65;38.18;100021.28;4484365;32;34086;-53
2021/04/01 00:49:59;;;;;;;;;;;;;;;23.65;38.15;100018.53;4484275;32;33849;-56
2021/04/01 00:52:26;;;;;;;;;;;;;;;23.64;38.17;100016.84;4484405;32;34483;-52
2021/04/01 00:54:53;;;;;;;;;;;;;;;23.64;38.13;100016.84;4484334;32;33576;-54
2021/04/01 00:57:20;;;;;;;;;;;;;;;23.63;38.02;100009.72;4484093;32;34225;-48
2021/04/01 00:59:47;;;;;;;;;;;;;;;23.63;38.14;100009.72;4484096;32;34039;-55
2021/04/01 01:02:14;;;;;;;;;;;;;;;23.63;38.19;100010.53;4484055;32;34347;-46
2021/04/01 01:04:41;;;;;;;;;;;;;;;23.62;38.14;100003.44;4483016;32;33499;-55
2021/04/01 01:07:07;;;;;;;;;;;;;;;23.63;38.12;100005.09;4484245;32;33752;-48
2021/04/01 01:09:34;;;;;;;;;;;;;;;23.62;38.02;100003.44;4484102;32;33744;-48
2021/04/01 01:12:01;;;;;;;;;;;;;;;23.62;38.11;100000.72;4483917;32;34361;-55
2021/04/01 01:14:28;;;;;;;;;;;;;;;23.62;37.88;100000.72;4483271;32;33142;-52
2021/04/01 01:16:55;;;;;;;;;;;;;;;23.62;37.99;99999.88;4482906;32;34270;-57
2021/04/01 01:19:22;;;;;;;;;;;;;;;23.62;38.03;99994.44;4482771;32;33691;-48
2021/04/01 01:21:48;;;;;;;;;;;;;;;23.61;38.09;99979.97;4476097;31;34196;-47
2021/04/01 01:24:16;;;;;;;;;;;;;;;23.62;37.99;99986.25;4479197;32;34066;-47
2021/04/01 01:26:43;;;;;;;;;;;;;;;23.62;37.95;99978.09;4483739;32;33990;-46
2021/04/01 01:29:09;;;;;;;;;;;;;;;23.61;38.36;99977.25;4484206;32;34075;-45
2021/04/01 01:31:40;;;;;;;;;;;;;;;23.61;38.31;99969.09;4483985;32;34283;-46
2021/04/01 01:34:07;;;;;;;;;;;;;;;23.62;38.21;99969.91;4483823;32;33466;-46
2021/04/01 01:36:33;;;;;;;;;;;;;;;23.61;38.21;99971.81;4483511;32;33646;-46
2021/04/01 01:39:00;;;;;;;;;;;;;;;23.60;38.09;99961.97;4483760;32;34930;-49
2021/04/01 01:41:27;;;;;;;;;;;;;;;23.59;38.21;99960.28;4483600;32;34429;-49
2021/04/01 01:43:54;;;;;;;;;;;;;;;23.60;38.21;99955.69;4484107;32;34323;-46
2021/04/01 01:46:21;;;;;;;;;;;;;;;23.59;38.10;99963.00;4483709;32;34903;-46
2021/04/01 01:48:48;;;;;;;;;;;;;;;23.58;38.07;99950.47;4483822;32;34078;-46
2021/04/01 01:51:15;;;;;;;;;;;;;;;23.58;37.95;99947.72;4483662;32;34347;-44
2021/04/01 01:53:42;;;;;;;;;;;;;;;23.58;38.13;99941.44;4483402;32;33922;-50
2021/04/01 01:56:08;;;;;;;;;;;;;;;23.59;38.15;99952.12;4483420;32;34504;-48
2021/04/01 01:58:35;;;;;;;;;;;;;;;23.58;38.34;99950.47;4483410;32;34249;-49
2021/04/01 02:01:05;;;;;;;;;;;;;;;23.58;38.35;99953.19;4483478;32;34512;-46
2021/04/01 02:03:32;;;;;;;;;;;;;;;23.60;38.37;99955.69;4480823;31;33446;-47
2021/04/01 02:05:58;;;;;;;;;;;;;;;23.59;38.44;99945.84;4482222;32;33794;-49
2021/04/01 02:08:26;;;;;;;;;;;;;;;23.59;38.46;99954.00;4482133;32;34974;-45
2021/04/01 02:10:53;;;;;;;;;;;;;;;23.59;38.25;99954.84;4481881;32;34439;-45
2021/04/01 02:13:20;;;;;;;;;;;;;;;23.59;38.05;99948.56;4482509;32;33108;-47
2021/04/01 02:15:47;;;;;;;;;;;;;;;23.59;38.02;99940.37;4483326;32;34829;-45
2021/04/01 02:18:15;;;;;;;;;;;;;;;23.58;38.18;99945.00;4483120;32;35047;-45
2021/04/01 02:20:43;;;;;;;;;;;;;;;23.57;38.12;99939.78;4485115;31;34316;-56
2021/04/01 02:23:11;;;;;;;;;;;;;;;23.57;37.99;99934.34;4483390;31;33554;-54
2021/04/01 02:25:38;;;;;;;;;;;;;;;23.57;38.05;99939.78;4483069;32;34170;-51
2021/04/01 02:28:05;;;;;;;;;;;;;;;23.56;37.99;99930.78;4485385;32;34192;-50
2021/04/01 02:30:33;;;;;;;;;;;;;;;23.56;38.21;99928.06;4485345;32;35778;-56
2021/04/01 02:32:59;;;;;;;;;;;;;;;23.55;38.24;99928.28;4485144;32;33556;-49
2021/04/01 02:35:26;;;;;;;;;;;;;;;23.56;38.18;99924.50;4484006;32;32350;-47
2021/04/01 02:37:53;;;;;;;;;;;;;;;23.56;38.32;99932.69;4485264;32;34228;-54
2021/04/01 02:40:20;;;;;;;;;;;;;;;23.55;38.36;99923.69;4485005;32;34109;-51
2021/04/01 02:42:47;;;;;;;;;;;;;;;23.55;38.29;99923.69;4485481;32;34057;-55
2021/04/01 02:45:14;;;;;;;;;;;;;;;23.56;38.33;99927.25;4483279;32;34150;-48
2021/04/01 02:47:41;;;;;;;;;;;;;;;23.55;38.28;99922.81;4483807;31;34166;-51
2021/04/01 02:50:08;;;;;;;;;;;;;;;23.55;38.31;99925.53;4482954;31;34998;-47
2021/04/01 02:52:36;;;;;;;;;;;;;;;23.54;38.30;99924.72;4485976;31;34298;-53
2021/04/01 02:55:04;;;;;;;;;;;;;;;23.54;38.30;99924.72;4499012;31;34205;-52
2021/04/01 02:57:31;;;;;;;;;;;;;;;23.54;38.27;99924.72;4497448;31;34139;-47
2021/04/01 03:00:01;;;;;;;;;;;;;;;23.54;38.30;99930.16;4485100;32;34285;-53
2021/04/01 03:02:28;;;;;;;;;;;;;;;23.54;38.21;99918.44;4484904;31;33629;-53
2021/04/01 03:04:54;;;;;;;;;;;;;;;23.53;38.32;99922.22;4485109;32;34184;-51
2021/04/01 03:07:21;;;;;;;;;;;;;;;23.54;38.27;99923.88;4486474;31;34908;-55
2021/04/01 03:09:48;;;;;;;;;;;;;;;23.53;38.26;99905.88;4500739;31;34440;-56
2021/04/01 03:12:15;;;;;;;;;;;;;;;23.53;38.32;99908.63;4500607;31;34264;-51
2021/04/01 03:14:42;;;;;;;;;;;;;;;23.53;38.24;99905.88;4501102;31;34126;-49
2021/04/01 03:17:09;;;;;;;;;;;;;;;23.53;38.37;99909.44;4500341;31;35547;-53
2021/04/01 03:19:36;;;;;;;;;;;;;;;23.52;38.38;99907.78;4469569;32;34269;-50
2021/04/01 03:22:03;;;;;;;;;;;;;;;23.53;38.33;99911.34;4469371;32;33487;-55
2021/04/01 03:24:30;;;;;;;;;;;;;;;23.52;38.43;99910.50;4469436;32;34775;-53
2021/04/01 03:26:56;;;;;;;;;;;;;;;23.52;38.28;99910.50;4469259;32;34270;-55
2021/04/01 03:29:23;;;;;;;;;;;;;;;23.52;38.35;99905.06;4498291;31;34406;-54
2021/04/01 03:31:50;;;;;;;;;;;;;;;23.52;38.36;99906.94;4500570;31;33524;-50
2021/04/01 03:34:17;;;;;;;;;;;;;;;23.52;38.36;99901.50;4500667;31;33621;-50
2021/04/01 03:36:45;;;;;;;;;;;;;;;23.51;38.44;99908.84;4500129;31;33697;-49
2021/04/01 03:39:12;;;;;;;;;;;;;;;23.51;38.39;99910.75;4487252;31;34429;-48
2021/04/01 03:41:39;;;;;;;;;;;;;;;23.51;38.39;99908.00;4485000;32;33182;-49
2021/04/01 03:44:06;;;;;;;;;;;;;;;23.50;38.34;99909.91;4484560;31;34600;-49
2021/04/01 03:46:34;;;;;;;;;;;;;;;23.51;38.43;99908.84;4485378;31;35403;-51
2021/04/01 03:49:02;;;;;;;;;;;;;;;23.51;38.32;99917.03;4484774;32;34277;-48
2021/04/01 03:51:29;;;;;;;;;;;;;;;23.51;38.19;99908.00;4484851;32;33564;-49
2021/04/01 03:53:55;;;;;;;;;;;;;;;23.50;38.36;99909.91;4484794;32;34060;-50
2021/04/01 03:56:22;;;;;;;;;;;;;;;23.50;38.41;99907.19;4485309;31;33977;-55
2021/04/01 04:09:47;;;;;;;;;;;;;;;23.48;38.47;99909.28;4500374;31;34029;-55
2021/04/01 04:12:34;;;;;;;;;;;;;;;23.47;38.45;99899.47;4500480;31;34187;-49
2021/04/01 04:15:07;;;;;;;;;;;;;;;23.47;38.46;99895.91;4468766;32;33768;-56
2021/04/01 04:17:34;;;;;;;;;;;;;;;23.47;38.07;99890.47;4469115;32;34222;-53
2021/04/01 04:20:01;;;;;;;;;;;;;;;23.47;38.51;99885.84;4468802;32;34310;-51
2021/04/01 04:22:28;;;;;;;;;;;;;;;23.46;38.41;99892.34;4468978;32;34229;-53
2021/04/01 04:24:55;;;;;;;;;;;;;;;23.47;38.50;99888.56;4497957;31;34007;-49
2021/04/01 04:30:02;;;;;;;;;;;;;;;23.49;38.04;99893.78;4494875;31;34510;-45
2021/04/01 04:32:29;;;;;;;;;;;;;;;23.47;38.47;99895.91;4483062;32;32179;-45
2021/04/01 04:34:56;;;;;;;;;;;;;;;23.47;38.46;99885.84;4484202;32;33860;-48
2021/04/01 04:37:23;;;;;;;;;;;;;;;23.47;38.51;99883.12;4483983;32;34222;-45
2021/04/01 04:39:50;;;;;;;;;;;;;;;23.47;38.60;99891.28;4484247;32;34712;-46
2021/04/01 04:42:17;;;;;;;;;;;;;;;23.47;38.62;99880.38;4484329;32;33450;-46
2021/04/01 04:44:44;;;;;;;;;;;;;;;23.47;38.57;99880.38;4484181;32;34021;-46
2021/04/01 04:47:11;;;;;;;;;;;;;;;23.47;38.48;99882.28;4484453;32;33696;-46
2021/04/01 04:49:37;;;;;;;;;;;;;;;23.48;38.40;99882.06;4482882;31;34422;-48
2021/04/01 04:52:06;;;;;;;;;;;;;;;23.48;38.39;99876.59;4484372;31;33574;-47
2021/04/01 04:54:33;;;;;;;;;;;;;;;23.49;38.29;99880.16;4484585;32;34085;-52
2021/04/01 04:57:06;;;;;;;;;;;;;;;23.49;38.49;99875.53;4489580;31;34087;-53
2021/04/01 04:59:42;;;;;;;;;;;;;;;23.48;38.47;99871.16;4500056;31;34430;-45
2021/04/01 05:04:57;;;;;;;;;;;;;;;23.48;38.29;99873.06;4500099;31;33708;-51
2021/04/01 05:07:23;;;;;;;;;;;;;;;23.47;38.37;99880.38;4492720;31;33814;-54
2021/04/01 05:09:50;;;;;;;;;;;;;;;23.48;38.21;99881.22;4484082;32;35015;-48
2021/04/01 05:12:17;;;;;;;;;;;;;;;23.48;37.98;99887.50;4483389;32;34142;-49
2021/04/01 05:14:44;;;;;;;;;;;;;;;23.46;37.93;99889.63;4484232;32;34838;-46
2021/04/01 05:17:14;;;;;;;;;;;;;;;23.46;37.90;99891.53;4488892;31;33671;-51
2021/04/01 05:19:41;;;;;;;;;;;;;;;23.46;37.89;99889.63;4500021;31;34387;-54
2021/04/01 05:22:15;;;;;;;;;;;;;;;23.45;37.88;99893.38;4499901;31;34298;-56
2021/04/01 05:24:42;;;;;;;;;;;;;;;23.46;37.89;99891.53;4499822;31;34161;-51
2021/04/01 05:29:58;;;;;;;;;;;;;;;23.43;37.89;99880.00;4483801;32;34319;-46
2021/04/01 05:32:29;;;;;;;;;;;;;;;23.43;37.89;99880.00;4483989;32;33545;-56
2021/04/01 05:34:57;;;;;;;;;;;;;;;23.42;37.88;99874.78;4484228;32;35031;-52
2021/04/01 05:37:28;;;;;;;;;;;;;;;23.42;37.87;99872.06;4489872;31;34146;-53
2021/04/01 05:39:55;;;;;;;;;;;;;;;23.42;37.86;99869.34;4499468;31;34746;-49
2021/04/01 05:42:24;;;;;;;;;;;;;;;23.41;37.85;99867.69;4499549;31;33571;-52
2021/04/01 05:44:55;;;;;;;;;;;;;;;23.40;37.93;99861.38;4499591;31;34271;-60
2021/04/01 05:47:37;;;;;;;;;;;;;;;23.42;37.87;99858.44;4492864;31;34947;-47
2021/04/01 05:50:39;;;;;;;;;;;;;;;23.42;37.74;99866.63;4476161;32;35220;-47
2021/04/01 05:54:07;;;;;;;;;;;;;;;23.42;37.60;99867.44;4483487;32;33248;-48
2021/04/01 06:01:26;;;;;;;;;;;;;;;23.46;36.97;99867.00;4484755;32;34336;-45
2021/04/01 06:04:02;;;;;;;;;;;;;;;23.49;36.86;99870.09;4485492;32;33399;-53
2021/04/01 06:06:42;;;;;;;;;;;;;;;23.47;37.00;99866.78;4485435;32;33679;-48
2021/04/01 06:09:23;;;;;;;;;;;;;;;23.48;36.96;99868.44;4484282;32;34931;-51
2021/04/01 06:11:53;;;;;;;;;;;;;;;23.49;36.85;99867.38;4485251;32;35031;-52
2021/04/01 06:14:50;;;;;;;;;;;;;;;23.52;36.81;99860.66;4485338;32;33736;-50
2021/04/01 06:17:17;;;;;;;;;;;;;;;23.53;36.73;99860.41;4471656;31;34798;-50
2021/04/01 06:19:46;;;;;;;;;;;;;;;23.56;36.72;99861.88;4485411;32;34213;-51
2021/04/01 06:22:14;;;;;;;;;;;;;;;23.57;36.69;99853.47;4485278;32;34373;-53
2021/04/01 06:24:40;;;;;;;;;;;;;;;23.59;36.63;99848.59;4485220;32;34320;-46
2021/04/01 06:27:24;;;;;;;;;;;;;;;23.61;36.58;99851.97;4484108;32;34671;-64
2021/04/01 06:32:41;;;;;;;;;;;;;;;23.63;36.89;99858.00;4485098;32;34465;-51
2021/04/01 06:35:20;;;;;;;;;;;;;;;23.65;36.93;99852.38;4485009;32;33471;-49
2021/04/01 06:40:27;;;;;;;;;;;;;;;23.71;37.02;99853.34;4484998;32;33708;-49
2021/04/01 06:42:57;;;;;;;;;;;;;;;23.79;37.05;99853.88;4485233;32;34457;-48
2021/04/01 06:45:24;;;;;;;;;;;;;;;23.92;37.03;99858.31;4485048;32;34258;-48
2021/04/01 06:47:54;;;;;;;;;;;;;;;24.06;36.94;99854.41;4472241;32;33746;-50
2021/04/01 06:50:28;;;;;;;;;;;;;;;24.22;36.81;99857.53;4485083;32;34861;-47
2021/04/01 06:53:17;;;;;;;;;;;;;;;24.38;36.66;99854.19;4483711;32;34306;-51
2021/04/01 06:56:20;;;;;;;;;;;;;;;24.54;36.54;99850.00;4486611;31;33420;-48
2021/04/01 07:02:17;;;;;;;;;;;;;;;24.83;36.26;99849.09;4484946;32;34172;-52
2021/04/01 07:04:34;;;;;;;;;;;;;;;24.93;36.18;99845.78;4482904;31;34625;-53
2021/04/01 07:07:04;;;;;;;;;;;;;;;25.01;36.08;99847.34;4481032;32;34296;-52
2021/04/01 07:12:20;;;;;;;;;;;;;;;25.13;35.92;99848.22;4472158;32;35715;-52
2021/04/01 07:14:50;;;;;;;;;;;;;;;25.16;35.91;99840.37;4483716;32;35097;-48
2021/04/01 07:17:29;;;;;;;;;;;;;;;25.19;35.92;99841.81;4480617;32;34264;-47
2021/04/01 07:36:02;;;;;;;;;;;;;;;25.21;35.88;99830.66;4480935;32;34310;-46
2021/04/01 07:46:59;;;;;;;;;;;;;;;25.14;36.07;99828.06;4468046;32;35099;-56
2021/04/01 07:49:27;;;;;;;;;;;;;;;25.11;36.09;99821.16;4476921;32;33069;-45
2021/04/01 07:52:01;;;;;;;;;;;;;;;25.11;36.06;99817.59;4469006;32;34237;-52
2021/04/01 07:54:33;;;;;;;;;;;;;;;25.10;35.97;99813.22;4480371;32;33838;-51
2021/04/01 07:57:11;;;;;;;;;;;;;;;25.07;36.09;99814.50;4484963;31;34393;-56
2021/04/01 07:59:52;;;;;;;;;;;;;;;25.05;36.21;99808.44;4476652;32;33335;-46
2021/04/01 08:02:29;;;;;;;;;;;;;;;25.04;36.26;99806.78;4468867;32;34037;-54
2021/04/01 08:04:58;;;;;;;;;;;;;;;25.02;35.96;99800.69;4470355;32;34086;-54
2021/04/01 08:07:28;;;;;;;;;;;;;;;25.00;36.06;99810.22;4484054;32;34262;-56
2021/04/01 08:09:59;;;;;;;;;;;;;;;24.98;36.12;99807.69;4484584;32;34255;-53
2021/04/01 08:12:31;;;;;;;;;;;;;;;24.97;36.16;99797.84;4484681;32;34987;-54
2021/04/01 08:15:04;;;;;;;;;;;;;;;24.94;36.18;99801.03;4482145;32;33726;-55
2021/04/01 08:17:42;;;;;;;;;;;;;;;24.92;36.24;99801.28;4472902;32;35020;-50
2021/04/01 08:20:10;;;;;;;;;;;;;;;24.90;36.28;99799.84;4481576;32;34225;-50
2021/04/01 08:23:07;;;;;;;;;;;;;;;24.88;36.30;99796.53;4482301;32;34232;-48
2021/04/01 08:26:38;;;;;;;;;;;;;;;24.86;36.33;99795.97;4478137;32;35008;-45
2021/04/01 08:34:47;;;;;;;;;;;;;;;24.78;36.31;99788.94;4483586;32;34072;-50
2021/04/01 08:37:34;;;;;;;;;;;;;;;24.75;36.27;99788.56;4468708;32;33684;-48
2021/04/01 08:40:21;;;;;;;;;;;;;;;24.74;36.30;99778.72;4467613;32;34297;-50
2021/04/01 08:43:37;;;;;;;;;;;;;;;24.72;36.30;99783.62;4468735;32;33463;-48
2021/04/01 08:46:43;;;;;;;;;;;;;;;24.70;36.30;99778.38;4468799;32;34000;-49
2021/04/01 08:49:23;;;;;;;;;;;;;;;24.66;36.33;99771.72;4468741;32;35051;-49
2021/04/01 08:51:54;;;;;;;;;;;;;;;24.63;36.42;99766.75;4467411;32;33971;-51
2021/04/01 08:54:24;;;;;;;;;;;;;;;24.62;36.43;99770.53;4468635;32;33618;-53
2021/04/01 08:57:07;;;;;;;;;;;;;;;24.60;36.38;99768.03;4468827;32;34554;-52
2021/04/01 08:59:46;;;;;;;;;;;;;;;24.58;36.46;99761.19;4467363;32;34642;-48
2021/04/01 09:02:14;;;;;;;;;;;;;;;24.57;36.51;99763.03;4468546;32;34052;-50
2021/04/01 09:04:45;;;;;;;;;;;;;;;24.55;36.53;99751.53;4468490;32;33408;-49
2021/04/01 09:07:40;;;;;;;;;;;;;;;24.53;36.55;99750.09;4468777;32;33956;-48
2021/04/01 09:10:35;;;;;;;;;;;;;;;24.51;36.56;99744.91;4467314;32;34104;-50
2021/04/01 09:17:56;;;;;;;;;;;;;;;24.49;36.57;99736.13;4499733;31;34014;-49
2021/04/01 09:20:23;;;;;;;;;;;;;;;24.48;36.60;99736.34;4499766;31;35025;-50
2021/04/01 09:22:51;;;;;;;;;;;;;;;24.46;36.61;99733.03;4499798;31;34306;-51
2021/04/01 09:25:18;;;;;;;;;;;;;;;24.45;36.62;99736.84;4499884;31;33365;-50
2021/04/01 09:27:46;;;;;;;;;;;;;;;24.44;36.61;99733.28;4499602;31;33930;-49
2021/04/01 09:30:13;;;;;;;;;;;;;;;24.42;36.61;99729.94;4499791;31;34086;-50
2021/04/01 09:32:40;;;;;;;;;;;;;;;24.40;36.60;99722.00;4495750;31;34960;-50
2021/04/01 09:35:07;;;;;;;;;;;;;;;24.39;36.60;99714.91;4477327;32;32907;-46
2021/04/01 09:37:34;;;;;;;;;;;;;;;24.40;36.62;99713.81;4481840;32;34506;-48
2021/04/01 09:40:11;;;;;;;;;;;;;;;24.39;36.66;99711.34;4482195;32;34981;-47
2021/04/01 09:42:42;;;;;;;;;;;;;;;24.38;36.81;99705.03;4483223;32;34331;-52
2021/04/01 09:45:09;;;;;;;;;;;;;;;24.43;36.85;99702.44;4483742;32;34169;-50
2021/04/01 09:47:36;;;;;;;;;;;;;;;24.52;36.87;99700.19;4483729;32;34892;-49
2021/04/01 09:50:05;;;;;;;;;;;;;;;24.63;36.79;99699.38;4483800;32;34516;-48
2021/04/01 09:52:32;;;;;;;;;;;;;;;24.75;36.73;99696.63;4483365;32;35387;-50
2021/04/01 09:54:59;;;;;;;;;;;;;;;24.86;36.67;99693.09;4483460;32;33744;-50
2021/04/01 09:57:40;;;;;;;;;;;;;;;24.97;36.56;99691.41;4483352;32;34859;-49
2021/04/01 10:00:21;;;;;;;;;;;;;;;25.07;36.47;99686.19;4483416;32;34115;-48
2021/04/01 10:03:03;;;;;;;;;;;;;;;25.16;36.41;99684.75;4483099;32;34234;-50
2021/04/01 10:05:37;;;;;;;;;;;;;;;25.24;36.31;99688.19;4482163;32;33489;-49
2021/04/01 10:08:05;;;;;;;;;;;;;;;25.30;36.26;99684.47;4483375;32;33780;-51
2021/04/01 10:10:35;;;;;;;;;;;;;;;25.35;36.23;99679.13;4483376;32;33886;-46
2021/04/01 10:13:02;;;;;;;;;;;;;;;25.40;36.17;99682.78;4483126;32;35069;-47
2021/04/01 10:15:30;;;;;;;;;;;;;;;25.43;36.14;99679.56;4481876;32;33903;-55
2021/04/01 10:17:57;;;;;;;;;;;;;;;25.46;36.10;99670.06;4483252;32;33819;-50
2021/04/01 10:20:24;;;;;;;;;;;;;;;25.48;36.02;99676.13;4482125;32;34640;-46
2021/04/01 10:22:51;;;;;;;;;;;;;;;25.50;35.99;99670.41;4482559;32;35090;-51
2021/04/01 10:25:29;;;;;;;;;;;;;;;25.50;35.94;99662.19;4482114;32;33186;-49
2021/04/01 10:30:29;;;;;;;;;;;;;;;25.51;35.75;99661.12;4482944;32;34977;-50
2021/04/01 10:33:26;;;;;;;;;;;;;;;25.51;35.68;99652.94;4482920;32;35186;-48
2021/04/01 10:35:54;;;;;;;;;;;;;;;25.50;35.67;99654.00;4469222;32;33024;-50
2021/04/01 10:38:21;;;;;;;;;;;;;;;25.49;35.86;99646.88;4482544;32;34897;-51
2021/04/01 10:40:49;;;;;;;;;;;;;;;25.48;35.87;99645.25;4482497;32;34827;-48
2021/04/01 10:43:17;;;;;;;;;;;;;;;25.46;35.85;99642.75;4482767;32;34417;-49
2021/04/01 10:45:44;;;;;;;;;;;;;;;25.44;35.78;99632.06;4482699;32;32952;-50
2021/04/01 10:48:17;;;;;;;;;;;;;;;25.43;35.77;99624.12;4484741;32;33796;-52
2021/04/01 10:50:45;;;;;;;;;;;;;;;25.40;35.84;99625.41;4485545;32;34639;-49
2021/04/01 10:53:21;;;;;;;;;;;;;;;25.38;35.83;99613.09;4485330;32;35109;-49
2021/04/01 10:55:50;;;;;;;;;;;;;;;25.38;35.89;99608.47;4485115;32;33894;-50
2021/04/01 10:58:16;;;;;;;;;;;;;;;25.37;35.98;99612.28;4483868;32;34166;-47
2021/04/01 11:00:56;;;;;;;;;;;;;;;25.37;36.01;99611.44;4485211;32;34772;-48
2021/04/01 11:03:36;;;;;;;;;;;;;;;25.34;36.07;99599.09;4484991;32;34152;-49
2021/04/01 11:06:03;;;;;;;;;;;;;;;25.32;36.16;99609.44;4485107;32;33871;-66
2021/04/01 11:08:36;;;;;;;;;;;;;;;25.32;36.18;99603.97;4484537;32;34146;-50
2021/04/01 11:11:03;;;;;;;;;;;;;;;25.29;36.30;99600.91;4484816;32;34138;-50
2021/04/01 11:13:33;;;;;;;;;;;;;;;25.24;36.36;99593.44;4498887;31;35091;-46
2021/04/01 11:16:02;;;;;;;;;;;;;;;25.24;36.31;99587.97;4500870;31;34208;-50
2021/04/01 11:18:30;;;;;;;;;;;;;;;25.24;36.36;99581.69;4500682;31;34132;-48
2021/04/01 11:20:58;;;;;;;;;;;;;;;25.22;36.38;99578.34;4496759;31;34905;-47
2021/04/01 11:23:25;;;;;;;;;;;;;;;25.21;36.42;99580.25;4484338;32;34546;-51
2021/04/01 11:25:54;;;;;;;;;;;;;;;25.17;36.45;99566.25;4469243;32;34347;-51
2021/04/01 11:28:41;;;;;;;;;;;;;;;25.17;36.45;99569.00;4469141;32;34943;-51
2021/04/01 11:31:08;;;;;;;;;;;;;;;25.16;36.46;99561.06;4469011;32;33036;-46
2021/04/01 11:33:36;;;;;;;;;;;;;;;25.15;36.48;99559.41;4469162;32;34391;-52
2021/04/01 11:36:12;;;;;;;;;;;;;;;25.12;36.53;99566.16;4469102;32;33450;-52
2021/04/01 11:38:42;;;;;;;;;;;;;;;25.11;36.57;99559.06;4468933;32;34805;-50
2021/04/01 11:41:11;;;;;;;;;;;;;;;25.09;36.60;99541.28;4469061;32;34951;-52
2021/04/01 11:43:38;;;;;;;;;;;;;;;25.07;36.65;99541.50;4468685;32;35095;-48
2021/04/01 11:46:12;;;;;;;;;;;;;;;25.08;36.73;99536.87;4469164;32;34061;-46
2021/04/01 11:48:39;;;;;;;;;;;;;;;25.06;36.79;99544.44;4468909;32;34001;-50
2021/04/01 11:51:26;;;;;;;;;;;;;;;25.04;36.76;99531.06;4469088;32;33793;-47
2021/04/01 11:53:53;;;;;;;;;;;;;;;25.01;36.80;99528.81;4469259;32;34653;-49
2021/04/01 11:56:20;;;;;;;;;;;;;;;25.00;36.84;99529.88;4471223;32;34705;-48
2021/04/01 11:58:47;;;;;;;;;;;;;;;24.99;36.85;99522.75;4483977;32;34144;-49
2021/04/01 12:01:38;;;;;;;;;;;;;;;24.98;36.87;99512.06;4484841;32;34113;-50
2021/04/01 12:06:29;;;;;;;;;;;;;;;24.94;37.01;99500.81;4479562;32;34433;-47
2021/04/01 12:08:56;;;;;;;;;;;;;;;24.90;37.08;99503.22;4477553;32;34117;-48
2021/04/01 12:11:24;;;;;;;;;;;;;;;24.89;37.15;99503.44;4484111;32;34188;-52
2021/04/01 12:13:51;;;;;;;;;;;;;;;24.89;37.18;99506.19;4468931;32;34993;-47
2021/04/01 12:16:18;;;;;;;;;;;;;;;24.88;37.18;99493.59;4471576;32;34196;-50
2021/04/01 12:18:46;;;;;;;;;;;;;;;24.86;37.24;99485.69;4482411;32;34900;-47
2021/04/01 12:21:13;;;;;;;;;;;;;;;24.86;37.31;99488.41;4484596;32;34246;-53
2021/04/01 12:23:49;;;;;;;;;;;;;;;24.84;37.42;99485.06;4474351;32;34395;-48
2021/04/01 12:26:16;;;;;;;;;;;;;;;24.83;37.36;99488.88;4468898;32;33556;-46
2021/04/01 12:28:47;;;;;;;;;;;;;;;24.82;37.45;99489.97;4468500;32;33637;-48
2021/04/01 12:31:15;;;;;;;;;;;;;;;24.82;37.42;99481.78;4467540;32;34914;-50
2021/04/01 12:33:49;;;;;;;;;;;;;;;24.82;37.40;99475.50;4474417;32;34516;-50
2021/04/01 12:36:16;;;;;;;;;;;;;;;24.81;37.35;99465.66;4471356;32;33467;-51
2021/04/01 12:38:44;;;;;;;;;;;;;;;24.80;37.45;99461.25;4468851;32;34009;-49
2021/04/01 12:41:21;;;;;;;;;;;;;;;24.80;37.46;99459.34;4468728;32;35781;-49
2021/04/01 12:43:48;;;;;;;;;;;;;;;24.82;37.34;99454.47;4468604;32;34452;-47
2021/04/01 12:46:15;;;;;;;;;;;;;;;24.81;37.42;99446.56;4468751;32;33513;-50
2021/04/01 12:48:51;;;;;;;;;;;;;;;24.79;37.34;99449.50;4468555;32;34805;-50
2021/04/01 12:51:20;;;;;;;;;;;;;;;24.78;37.40;99447.03;4479465;32;34291;-47
2021/04/01 12:54:07;;;;;;;;;;;;;;;24.77;37.46;99431.75;4482535;32;34353;-51
2021/04/01 12:56:41;;;;;;;;;;;;;;;24.78;37.44;99436.13;4468586;32;33531;-51
2021/04/01 13:01:51;;;;;;;;;;;;;;;24.76;37.61;99430.06;4466745;32;33966;-52
2021/04/01 13:04:22;;;;;;;;;;;;;;;24.75;37.58;99425.69;4466635;32;34435;-49
2021/04/01 13:11:49;;;;;;;;;;;;;;;24.75;37.50;99414.75;4466474;32;34384;-50
2021/04/01 13:14:23;;;;;;;;;;;;;;;24.71;37.52;99411.69;4466596;32;34015;-48
2021/04/01 13:16:51;;;;;;;;;;;;;;;24.73;37.54;99408.75;4467504;32;33619;-52
2021/04/01 13:19:22;;;;;;;;;;;;;;;24.72;37.56;99399.72;4475519;32;33636;-50
2021/04/01 13:24:30;;;;;;;;;;;;;;;24.69;37.58;99395.56;4473729;32;34366;-50
2021/04/01 13:26:57;;;;;;;;;;;;;;;24.69;37.59;99392.84;4475555;32;33553;-50
2021/04/01 13:29:26;;;;;;;;;;;;;;;24.69;37.61;99381.09;4479410;32;33779;-53
2021/04/01 13:31:58;;;;;;;;;;;;;;;24.68;37.61;99382.19;4479354;32;35009;-49
2021/04/01 13:37:02;;;;;;;;;;;;;;;24.66;37.53;99363.31;4482353;32;33625;-49
2021/04/01 13:39:41;;;;;;;;;;;;;;;24.66;37.42;99362.50;4498069;31;33774;-48
2021/04/01 13:42:12;;;;;;;;;;;;;;;24.64;37.34;99360.03;4499455;31;34225;-48
2021/04/01 13:47:09;;;;;;;;;;;;;;;24.63;37.34;99360.28;4487227;31;33233;-50
2021/04/01 13:49:36;;;;;;;;;;;;;;;24.62;37.37;99358.59;4483785;32;34608;-46
2021/04/01 13:52:16;;;;;;;;;;;;;;;24.61;37.43;99354.22;4483671;32;33989;-50
2021/04/01 13:55:19;;;;;;;;;;;;;;;24.59;37.38;99353.66;4483749;32;34298;-46
2021/04/01 14:01:23;;;;;;;;;;;;;;;24.57;37.30;99345.69;4483316;32;35532;-49
2021/04/01 14:09:17;;;;;;;;;;;;;;;24.52;37.32;99331.97;4483835;32;34128;-48
2021/04/01 14:11:44;;;;;;;;;;;;;;;24.52;37.34;99337.41;4483405;32;33803;-49
2021/04/01 14:14:12;;;;;;;;;;;;;;;24.52;37.29;99331.97;4483189;32;34065;-49
2021/04/01 14:16:42;;;;;;;;;;;;;;;24.51;37.25;99316.69;4483509;32;33974;-49
2021/04/01 14:19:09;;;;;;;;;;;;;;;24.51;37.25;99321.31;4483384;32;34296;-47
2021/04/01 14:21:36;;;;;;;;;;;;;;;24.49;37.23;99313.38;4484450;32;34480;-49
2021/04/01 14:24:05;;;;;;;;;;;;;;;24.49;37.23;99318.00;4500016;31;34163;-47
2021/04/01 14:26:37;;;;;;;;;;;;;;;24.49;37.24;99315.28;4500207;31;34392;-55
2021/04/01 14:29:04;;;;;;;;;;;;;;;24.48;37.24;99321.78;4501231;31;33021;-49
2021/04/01 14:31:34;;;;;;;;;;;;;;;24.47;37.19;99306.50;4501162;31;34004;-47
2021/04/01 14:34:02;;;;;;;;;;;;;;;24.43;37.27;99307.03;4476698;31;34066;-55
2021/04/01 14:36:29;;;;;;;;;;;;;;;24.46;37.25;99302.13;4469528;32;34080;-49
2021/04/01 14:38:56;;;;;;;;;;;;;;;24.43;37.29;99298.84;4471819;32;33540;-56
2021/04/01 14:41:40;;;;;;;;;;;;;;;24.45;37.32;99304.03;4480381;32;34085;-48
2021/04/01 14:46:33;;;;;;;;;;;;;;;24.43;37.37;99303.44;4485081;32;34429;-53